createdAt,value
2023-01-18T00:00:40.356Z,2.88
2023-01-18T00:03:15.125Z,3.22
2023-01-18T00:05:42.438Z,3.03
2023-01-18T00:08:10.537Z,3.72
2023-01-18T00:10:37.340Z,3.15
2023-01-18T00:13:04.241Z,2.88
2023-01-18T00:15:31.857Z,3.17
2023-01-18T00:17:58.605Z,2.67
2023-01-18T00:20:25.983Z,2.72
2023-01-18T00:22:52.700Z,2.50
2023-01-18T00:25:20.708Z,2.70
2023-01-18T00:27:49.291Z,2.70
2023-01-18T00:30:18.017Z,2.95
2023-01-18T00:32:45.565Z,2.90
2023-01-18T00:35:13.069Z,3.28
2023-01-18T00:37:39.841Z,3.38
2023-01-18T00:40:07.341Z,3.67
2023-01-18T00:42:53.875Z,3.00
2023-01-18T00:45:20.487Z,2.50
2023-01-18T00:47:47.097Z,3.08
2023-01-18T00:50:13.884Z,2.90
2023-01-18T00:52:46.137Z,3.47
2023-01-18T00:55:13.725Z,3.13
2023-01-18T00:57:41.125Z,2.78
2023-01-18T01:00:09.701Z,3.35
2023-01-18T01:02:43.606Z,3.22
2023-01-18T01:05:37.154Z,3.53
2023-01-18T01:08:07.165Z,3.55
2023-01-18T01:10:34.636Z,5.72
2023-01-18T01:13:21.519Z,3.72
2023-01-18T01:16:08.113Z,3.58
2023-01-18T01:18:57.503Z,3.75
2023-01-18T01:21:44.357Z,4.45
2023-01-18T01:24:30.927Z,3.83
2023-01-18T01:26:57.593Z,3.88
2023-01-18T01:29:24.333Z,4.00
2023-01-18T01:31:51.330Z,3.60
2023-01-18T01:34:18.279Z,3.38
2023-01-18T01:36:44.930Z,3.35
2023-01-18T01:39:11.684Z,3.95
2023-01-18T01:41:38.410Z,3.38
2023-01-18T01:47:00.155Z,3.10
2023-01-18T01:49:32.272Z,3.67
2023-01-18T01:52:04.378Z,3.88
2023-01-18T01:54:34.451Z,3.53
2023-01-18T01:57:06.075Z,3.47
2023-01-18T01:59:34.348Z,3.80
2023-01-18T02:02:01.162Z,3.65
2023-01-18T02:04:27.856Z,3.63
2023-01-18T02:06:54.480Z,3.40
2023-01-18T02:09:23.218Z,3.95
2023-01-18T02:11:51.767Z,3.63
2023-01-18T02:14:18.560Z,3.70
2023-01-18T02:20:21.829Z,2.85
2023-01-18T02:25:53.498Z,2.97
2023-01-18T02:28:34.828Z,2.58
2023-01-18T02:34:14.739Z,3.00
2023-01-18T02:36:51.146Z,3.28
2023-01-18T02:39:45.543Z,3.17
2023-01-18T02:42:39.420Z,3.03
2023-01-18T02:45:35.688Z,2.90
2023-01-18T02:48:02.685Z,2.25
2023-01-18T02:50:29.499Z,2.22
2023-01-18T02:52:56.632Z,2.53
2023-01-18T02:55:46.282Z,2.20
2023-01-18T02:58:21.760Z,2.50
2023-01-18T03:00:52.824Z,2.00
2023-01-18T03:03:19.466Z,2.00
2023-01-18T03:05:46.325Z,1.83
2023-01-18T03:08:18.506Z,1.90
2023-01-18T03:11:04.698Z,1.92
2023-01-18T03:13:59.398Z,1.75
2023-01-18T03:16:27.870Z,2.58
2023-01-18T03:19:00.955Z,1.98
2023-01-18T03:21:48.782Z,1.77
2023-01-18T03:24:16.145Z,1.40
2023-01-18T03:26:46.956Z,1.67
2023-01-18T03:29:34.652Z,1.85
2023-01-18T03:34:52.833Z,1.67
2023-01-18T03:37:30.583Z,1.50
2023-01-18T03:40:00.554Z,1.13
2023-01-18T03:42:29.356Z,1.10
2023-01-18T03:45:08.167Z,1.40
2023-01-18T03:47:34.825Z,1.67
2023-01-18T03:50:01.557Z,1.20
2023-01-18T03:52:47.039Z,1.45
2023-01-18T03:55:19.259Z,1.60
2023-01-18T03:57:50.325Z,1.20
2023-01-18T04:00:17.240Z,1.50
2023-01-18T04:02:44.588Z,1.25
2023-01-18T04:05:11.389Z,1.38
2023-01-18T04:07:37.986Z,1.70
2023-01-18T04:10:05.193Z,1.60
2023-01-18T04:12:34.293Z,1.70
2023-01-18T04:15:01.555Z,1.27
2023-01-18T04:17:28.297Z,1.80
2023-01-18T04:19:54.967Z,1.63
2023-01-18T04:22:21.565Z,1.50
2023-01-18T04:24:48.239Z,1.60
2023-01-18T04:27:14.929Z,1.70
2023-01-18T04:29:41.597Z,1.52
2023-01-18T04:32:08.466Z,1.65
2023-01-18T04:34:35.096Z,1.80
2023-01-18T04:37:01.781Z,1.80
2023-01-18T04:39:28.416Z,1.48
2023-01-18T04:41:57.927Z,1.58
2023-01-18T04:44:24.542Z,2.10
2023-01-18T04:46:51.374Z,2.65
2023-01-18T04:49:18.157Z,1.80
2023-01-18T04:51:45.363Z,1.73
2023-01-18T04:54:12.885Z,2.00
2023-01-18T04:56:39.674Z,1.85
2023-01-18T04:59:06.422Z,1.60
2023-01-18T05:01:33.507Z,1.52
2023-01-18T05:04:00.309Z,1.30
2023-01-18T05:06:27.089Z,1.60
2023-01-18T05:08:53.720Z,1.40
2023-01-18T05:11:21.010Z,1.17
2023-01-18T05:13:47.713Z,2.35
2023-01-18T05:16:17.317Z,1.50
2023-01-18T05:18:44.566Z,1.88
2023-01-18T05:21:14.803Z,1.80
2023-01-18T05:23:41.669Z,1.38
2023-01-18T05:26:14.333Z,1.45
2023-01-18T05:28:41.698Z,1.67
2023-01-18T05:31:08.457Z,1.80
2023-01-18T05:33:35.826Z,1.65
2023-01-18T05:36:02.852Z,1.95
2023-01-18T05:38:29.787Z,2.03
2023-01-18T05:40:57.426Z,1.77
2023-01-18T05:43:26.575Z,2.17
2023-01-18T05:45:53.355Z,1.85
2023-01-18T05:48:20.519Z,1.92
2023-01-18T05:50:48.418Z,2.00
2023-01-18T05:53:16.822Z,2.05
2023-01-18T05:55:43.437Z,2.03
2023-01-18T05:58:12.674Z,2.22
2023-01-18T06:00:39.285Z,1.98
2023-01-18T06:03:05.951Z,1.95
2023-01-18T06:05:35.098Z,1.90
2023-01-18T06:08:02.695Z,2.15
2023-01-18T06:10:29.441Z,2.08
2023-01-18T06:12:59.200Z,2.28
2023-01-18T06:15:26.173Z,1.90
2023-01-18T06:17:52.943Z,1.85
2023-01-18T06:20:19.699Z,2.10
2023-01-18T06:22:46.672Z,2.22
2023-01-18T06:25:13.385Z,2.25
2023-01-18T06:27:40.188Z,2.17
2023-01-18T06:30:07.861Z,2.22
2023-01-18T06:32:34.690Z,2.08
2023-01-18T06:35:01.438Z,2.25
2023-01-18T06:37:28.455Z,2.15
2023-01-18T06:39:57.902Z,3.97
2023-01-18T06:42:24.676Z,2.45
2023-01-18T06:44:51.271Z,2.47
2023-01-18T06:47:19.875Z,1.98
2023-01-18T06:49:48.048Z,2.30
2023-01-18T06:52:16.777Z,2.00
2023-01-18T06:54:44.881Z,2.10
2023-01-18T06:57:12.194Z,1.98
2023-01-18T06:59:39.467Z,2.20
2023-01-18T07:02:06.946Z,2.65
2023-01-18T07:04:35.676Z,2.00
2023-01-18T07:07:02.450Z,1.95
2023-01-18T07:09:29.131Z,2.47
2023-01-18T07:11:55.773Z,2.10
2023-01-18T07:14:22.418Z,2.58
2023-01-18T07:16:49.168Z,2.10
2023-01-18T07:19:16.293Z,2.55
2023-01-18T07:21:42.981Z,1.92
2023-01-18T07:24:09.571Z,2.05
2023-01-18T07:26:36.316Z,2.83
2023-01-18T07:29:03.101Z,2.00
2023-01-18T07:31:30.607Z,1.95
2023-01-18T07:33:57.321Z,1.85
2023-01-18T07:36:24.107Z,2.70
2023-01-18T07:38:50.845Z,2.47
2023-01-18T07:41:17.704Z,1.80
2023-01-18T07:43:44.837Z,1.98
2023-01-18T07:46:13.928Z,1.50
2023-01-18T07:48:40.821Z,1.50
2023-01-18T07:51:08.863Z,1.60
2023-01-18T07:53:36.233Z,1.50
2023-01-18T07:56:05.753Z,1.52
2023-01-18T07:58:32.437Z,1.42
2023-01-18T08:01:16.417Z,1.75
2023-01-18T08:03:43.749Z,1.80
2023-01-18T08:06:12.792Z,1.20
2023-01-18T08:08:39.534Z,1.48
2023-01-18T08:11:06.547Z,1.42
2023-01-18T08:13:33.274Z,1.30
2023-01-18T08:16:00.737Z,1.20
2023-01-18T08:18:27.488Z,1.30
2023-01-18T08:20:55.238Z,1.85
2023-01-18T08:23:22.346Z,1.55
2023-01-18T08:25:49.554Z,1.77
2023-01-18T08:28:16.379Z,1.50
2023-01-18T08:30:46.690Z,1.42
2023-01-18T08:33:16.225Z,1.40
2023-01-18T08:35:45.508Z,1.70
2023-01-18T08:38:13.090Z,1.55
2023-01-18T08:40:40.121Z,1.42
2023-01-18T08:43:06.808Z,1.60
2023-01-18T08:45:34.919Z,1.70
2023-01-18T08:48:05.237Z,1.38
2023-01-18T08:50:32.218Z,1.33
2023-01-18T08:53:00.156Z,1.50
2023-01-18T08:55:27.339Z,1.30
2023-01-18T08:57:54.769Z,1.95
2023-01-18T09:00:26.953Z,1.42
2023-01-18T09:02:53.968Z,1.90
2023-01-18T09:05:20.686Z,1.60
2023-01-18T09:07:57.984Z,1.40
2023-01-18T09:10:24.701Z,2.45
2023-01-18T09:12:53.590Z,1.88
2023-01-18T09:15:20.503Z,2.22
2023-01-18T09:17:47.249Z,1.73
2023-01-18T09:20:13.988Z,1.70
2023-01-18T09:22:42.720Z,1.70
2023-01-18T09:25:10.684Z,1.75
2023-01-18T09:30:40.858Z,1.80
2023-01-18T09:33:12.173Z,1.60
2023-01-18T09:35:38.966Z,1.63
2023-01-18T09:38:07.214Z,1.85
2023-01-18T09:40:45.164Z,1.80
2023-01-18T09:43:18.389Z,2.30
2023-01-18T09:45:46.214Z,1.85
2023-01-18T09:48:20.030Z,2.45
2023-01-18T09:50:46.671Z,1.70
2023-01-18T09:53:51.597Z,1.70
2023-01-18T09:56:21.972Z,1.98
2023-01-18T09:59:49.636Z,1.40
2023-01-18T10:02:19.369Z,1.52
2023-01-18T10:04:48.312Z,1.70
2023-01-18T10:07:16.459Z,1.60
2023-01-18T10:09:46.519Z,1.50
2023-01-18T10:12:37.932Z,1.60
2023-01-18T10:15:29.423Z,1.75
2023-01-18T10:17:57.558Z,2.05
2023-01-18T10:20:28.594Z,1.60
2023-01-18T10:23:00.761Z,2.60
2023-01-18T10:25:45.801Z,9.98
2023-01-18T10:28:39.072Z,2.25
2023-01-18T10:31:31.911Z,1.60
2023-01-18T10:36:32.576Z,1.77
2023-01-18T10:39:01.531Z,1.83
2023-01-18T10:41:30.911Z,2.03
2023-01-18T10:43:57.536Z,1.98
2023-01-18T10:46:24.191Z,2.30
2023-01-18T10:48:52.201Z,1.88
2023-01-18T10:51:29.975Z,2.00
2023-01-18T10:53:57.441Z,2.13
2023-01-18T10:56:24.505Z,1.60
2023-01-18T11:01:34.428Z,1.65
2023-01-18T11:04:24.859Z,1.45
2023-01-18T11:06:56.113Z,1.30
2023-01-18T11:09:43.408Z,1.45
2023-01-18T11:12:52.104Z,1.23
2023-01-18T11:18:01.088Z,2.00
2023-01-18T11:20:49.843Z,1.60
2023-01-18T11:23:21.009Z,1.30
2023-01-18T11:28:35.041Z,2.28
2023-01-18T11:31:25.656Z,2.80
2023-01-18T11:34:14.187Z,2.33
2023-01-18T11:36:42.444Z,2.63
2023-01-18T11:39:33.093Z,1.77
2023-01-18T11:42:22.087Z,2.50
2023-01-18T11:45:18.621Z,1.95
2023-01-18T11:48:22.543Z,2.15
2023-01-18T11:50:56.327Z,2.60
2023-01-18T11:53:46.893Z,3.00
2023-01-18T11:56:32.302Z,2.33
2023-01-18T11:59:26.754Z,2.00
2023-01-18T12:05:03.788Z,2.72
2023-01-18T12:07:54.302Z,2.08
2023-01-18T12:10:22.863Z,2.42
2023-01-18T12:13:29.339Z,2.58
2023-01-18T12:19:03.460Z,2.40
2023-01-18T12:27:16.767Z,2.10
2023-01-18T12:29:55.199Z,1.88
2023-01-18T12:32:47.607Z,2.17
2023-01-18T12:38:24.251Z,2.60
2023-01-18T12:41:16.259Z,2.60
2023-01-18T12:44:13.951Z,1.93
2023-01-18T12:47:06.039Z,3.47
2023-01-18T12:49:37.008Z,3.30
2023-01-18T12:52:18.094Z,3.88
2023-01-18T12:54:48.934Z,4.32
2023-01-18T12:57:16.972Z,3.33
2023-01-18T13:00:06.044Z,3.65
2023-01-18T13:02:37.704Z,3.40
2023-01-18T13:05:34.794Z,4.20
2023-01-18T13:08:23.863Z,3.25
2023-01-18T13:10:50.573Z,3.25
2023-01-18T13:13:19.384Z,3.65
2023-01-18T13:15:53.033Z,4.22
2023-01-18T13:18:30.531Z,3.75
2023-01-18T13:21:21.993Z,3.33
2023-01-18T13:24:00.619Z,4.00
2023-01-18T13:27:02.047Z,4.18
2023-01-18T13:29:50.975Z,4.63
2023-01-18T13:32:36.954Z,5.57
2023-01-18T13:35:20.687Z,4.10
2023-01-18T13:37:55.803Z,4.25
2023-01-18T13:41:01.220Z,4.47
2023-01-18T13:46:19.542Z,3.47
2023-01-18T13:48:52.665Z,3.75
2023-01-18T13:51:43.219Z,4.40
2023-01-18T13:54:11.353Z,4.05
2023-01-18T13:56:38.606Z,5.07
2023-01-18T14:02:17.040Z,6.90
2023-01-18T14:05:19.822Z,6.88
2023-01-18T14:07:47.976Z,6.63
2023-01-18T14:13:04.264Z,6.07
2023-01-18T14:18:22.898Z,6.10
2023-01-18T14:21:04.632Z,7.28
2023-01-18T14:26:36.139Z,8.25
2023-01-18T14:29:10.051Z,5.53
2023-01-18T14:31:38.677Z,6.00
2023-01-18T14:34:33.170Z,7.53
2023-01-18T14:36:59.886Z,6.68
2023-01-18T14:39:28.315Z,6.55
2023-01-18T14:41:56.611Z,6.63
2023-01-18T14:44:25.383Z,7.50
2023-01-18T14:46:54.673Z,6.40
2023-01-18T14:49:25.531Z,7.65
2023-01-18T14:51:52.601Z,6.80
2023-01-18T14:54:19.310Z,7.85
2023-01-18T14:56:46.384Z,6.32
2023-01-18T14:59:21.960Z,6.13
2023-01-18T15:04:48.678Z,7.57
2023-01-18T15:07:18.365Z,6.78
2023-01-18T15:09:45.513Z,7.18
2023-01-18T15:12:14.130Z,7.05
2023-01-18T15:14:43.825Z,7.72
2023-01-18T15:17:11.797Z,7.18
2023-01-18T15:19:40.523Z,6.95
2023-01-18T15:22:08.491Z,6.72
2023-01-18T15:24:38.585Z,7.15
2023-01-18T15:27:05.595Z,7.30
2023-01-18T15:29:34.660Z,8.38
2023-01-18T15:34:49.047Z,6.65
2023-01-18T15:37:25.185Z,7.07
2023-01-18T15:40:00.852Z,7.30
2023-01-18T15:42:51.725Z,7.82
2023-01-18T15:45:24.504Z,7.50
2023-01-18T15:47:54.042Z,7.97
2023-01-18T15:50:21.950Z,6.70
2023-01-18T15:52:57.828Z,6.63
2023-01-18T15:55:28.177Z,7.25
2023-01-18T15:58:01.120Z,7.10
2023-01-18T16:00:37.962Z,7.22
2023-01-18T16:03:05.773Z,7.45
2023-01-18T16:05:32.804Z,6.80
2023-01-18T16:08:20.396Z,7.25
2023-01-18T16:10:52.687Z,6.82
2023-01-18T16:13:32.332Z,7.95
2023-01-18T16:16:22.563Z,5.95
2023-01-18T16:18:52.100Z,5.95
2023-01-18T16:21:40.231Z,7.70
2023-01-18T16:24:29.422Z,7.05
2023-01-18T16:26:56.105Z,6.22
2023-01-18T16:29:22.800Z,6.60
2023-01-18T16:31:49.481Z,6.88
2023-01-18T16:34:22.860Z,7.03
2023-01-18T16:36:49.851Z,6.38
2023-01-18T16:39:16.479Z,7.68
2023-01-18T16:41:43.322Z,6.68
2023-01-18T16:44:10.711Z,7.10
2023-01-18T16:46:37.740Z,7.88
2023-01-18T16:49:05.491Z,6.47
2023-01-18T16:51:32.293Z,8.05
2023-01-18T16:53:59.178Z,8.88
2023-01-18T16:56:25.794Z,6.60
2023-01-18T16:58:52.500Z,7.13
2023-01-18T17:01:19.303Z,7.97
2023-01-18T17:03:46.131Z,6.75
2023-01-18T17:06:16.838Z,8.07
2023-01-18T17:08:43.888Z,6.57
2023-01-18T17:11:12.313Z,6.85
2023-01-18T17:13:39.851Z,6.72
2023-01-18T17:16:09.389Z,7.80
2023-01-18T17:18:36.179Z,8.32
2023-01-18T17:21:03.228Z,5.05
2023-01-18T17:23:30.048Z,5.63
2023-01-18T17:25:58.365Z,5.63
2023-01-18T17:28:27.426Z,4.47
2023-01-18T17:30:54.199Z,5.22
2023-01-18T17:33:22.486Z,5.30
2023-01-18T17:35:50.133Z,4.90
2023-01-18T17:38:24.291Z,5.10
2023-01-18T17:40:52.376Z,5.07
2023-01-18T17:43:32.112Z,5.60
2023-01-18T17:46:02.337Z,5.70
2023-01-18T17:48:29.385Z,6.07
2023-01-18T17:50:55.986Z,6.50
2023-01-18T17:53:26.277Z,5.28
2023-01-18T17:55:53.148Z,6.00
2023-01-18T17:58:19.805Z,5.63
2023-01-18T18:00:46.596Z,5.85
2023-01-18T18:03:13.485Z,4.75
2023-01-18T18:05:40.190Z,6.07
2023-01-18T18:08:07.630Z,5.85
2023-01-18T18:10:34.320Z,5.88
2023-01-18T18:13:01.608Z,7.28
2023-01-18T18:15:28.504Z,6.03
2023-01-18T18:17:55.290Z,5.45
2023-01-18T18:20:22.999Z,5.85
2023-01-18T18:22:49.864Z,5.10
2023-01-18T18:25:16.667Z,5.50
2023-01-18T18:27:46.789Z,5.22
2023-01-18T18:30:14.761Z,5.28
2023-01-18T18:32:41.429Z,6.78
2023-01-18T18:35:23.766Z,6.22
2023-01-18T18:37:51.736Z,5.93
2023-01-18T18:40:19.243Z,6.20
2023-01-18T18:43:00.392Z,6.50
2023-01-18T18:45:28.516Z,6.38
2023-01-18T18:47:55.372Z,6.65
2023-01-18T18:50:22.131Z,6.43
2023-01-18T18:52:48.957Z,11.60
2023-01-18T18:55:15.917Z,6.55
2023-01-18T18:57:44.091Z,6.65
2023-01-18T19:00:11.368Z,7.93
2023-01-18T19:02:38.407Z,7.15
2023-01-18T19:05:08.793Z,8.38
2023-01-18T19:07:35.909Z,7.15
2023-01-18T19:10:03.323Z,8.70
2023-01-18T19:12:31.688Z,8.80
2023-01-18T19:14:58.938Z,9.65
2023-01-18T19:17:30.890Z,8.00
2023-01-18T19:19:58.254Z,7.97
2023-01-18T19:22:24.938Z,8.05
2023-01-18T19:24:51.539Z,8.27
2023-01-18T19:27:18.277Z,7.35
2023-01-18T19:29:45.047Z,7.65
2023-01-18T19:32:11.777Z,8.25
2023-01-18T19:34:38.654Z,8.30
2023-01-18T19:37:05.475Z,8.75
2023-01-18T19:39:34.723Z,9.13
2023-01-18T19:42:01.917Z,8.25
2023-01-18T19:44:28.616Z,7.85
2023-01-18T19:46:56.733Z,10.18
2023-01-18T19:49:25.528Z,8.95
2023-01-18T19:51:53.242Z,9.93
2023-01-18T19:54:20.182Z,9.00
2023-01-18T19:56:46.825Z,10.63
2023-01-18T19:59:14.957Z,9.05
2023-01-18T20:01:42.155Z,9.35
2023-01-18T20:04:09.398Z,8.35
2023-01-18T20:06:38.165Z,10.05
2023-01-18T20:09:12.691Z,10.32
2023-01-18T20:11:45.128Z,10.45
2023-01-18T20:14:12.772Z,10.13
2023-01-18T20:16:39.659Z,8.60
2023-01-18T20:19:06.418Z,9.65
2023-01-18T20:21:33.174Z,8.90
2023-01-18T20:24:00.941Z,11.52
2023-01-18T20:26:36.707Z,9.52
2023-01-18T20:29:07.300Z,9.82
2023-01-18T20:31:36.126Z,8.68
2023-01-18T20:34:03.628Z,9.10
2023-01-18T20:36:30.429Z,8.35
2023-01-18T20:38:57.248Z,8.98
2023-01-18T20:41:23.979Z,10.77
2023-01-18T20:43:50.740Z,9.93
2023-01-18T20:46:17.427Z,10.77
2023-01-18T20:48:44.098Z,10.40
2023-01-18T20:51:10.852Z,12.23
2023-01-18T20:53:38.492Z,12.00
2023-01-18T20:56:09.824Z,11.88
2023-01-18T20:58:39.640Z,11.35
2023-01-18T21:01:18.296Z,10.85
2023-01-18T21:03:46.300Z,11.68
2023-01-18T21:06:13.267Z,12.80
2023-01-18T21:08:40.106Z,11.75
2023-01-18T21:11:11.688Z,12.88
2023-01-18T21:13:38.481Z,12.90
2023-01-18T21:16:05.314Z,14.10
2023-01-18T21:18:32.994Z,15.43
2023-01-18T21:20:59.815Z,13.98
2023-01-18T21:23:26.983Z,15.50
2023-01-18T21:25:55.567Z,14.48
2023-01-18T21:28:22.412Z,16.83
2023-01-18T21:30:51.457Z,13.18
2023-01-18T21:33:18.142Z,14.77
2023-01-18T21:35:44.882Z,14.50
2023-01-18T21:38:11.503Z,13.35
2023-01-18T21:40:38.149Z,16.17
2023-01-18T21:43:24.719Z,15.50
2023-01-18T21:45:56.069Z,14.10
2023-01-18T21:48:23.705Z,13.60
2023-01-18T21:51:10.394Z,25.30
2023-01-18T21:53:56.927Z,14.88
2023-01-18T21:56:23.577Z,16.08
2023-01-18T21:58:53.179Z,14.20
2023-01-18T22:01:22.549Z,15.38
2023-01-18T22:04:11.023Z,13.23
2023-01-18T22:06:37.700Z,16.25
2023-01-18T22:09:05.113Z,15.77
2023-01-18T22:11:31.904Z,15.68
2023-01-18T22:13:58.610Z,15.15
2023-01-18T22:16:30.334Z,14.60
2023-01-18T22:18:59.274Z,15.35
2023-01-18T22:21:26.312Z,17.55
2023-01-18T22:23:53.303Z,16.58
2023-01-18T22:26:20.924Z,16.98
2023-01-18T22:28:47.641Z,15.43
2023-01-18T22:31:14.518Z,14.40
2023-01-18T22:33:41.389Z,16.25
2023-01-18T22:36:11.513Z,20.17
2023-01-18T22:38:38.536Z,17.98
2023-01-18T22:41:07.782Z,22.63
2023-01-18T22:43:34.930Z,21.77
2023-01-18T22:46:04.256Z,20.05
2023-01-18T22:48:32.985Z,20.25
2023-01-18T22:51:01.047Z,19.10
2023-01-18T22:53:28.426Z,19.25
2023-01-18T22:55:55.293Z,19.15
2023-01-18T22:58:21.878Z,21.15
2023-01-18T23:00:48.995Z,19.77
2023-01-18T23:03:17.356Z,20.55
2023-01-18T23:05:52.256Z,21.52
2023-01-18T23:08:19.085Z,20.58
2023-01-18T23:10:47.028Z,19.88
2023-01-18T23:13:16.619Z,17.77
2023-01-18T23:16:03.974Z,16.65
2023-01-18T23:18:30.605Z,17.80
2023-01-18T23:20:59.025Z,19.80
2023-01-18T23:23:26.028Z,19.30
2023-01-18T23:25:55.007Z,18.33
2023-01-18T23:28:27.583Z,16.85
2023-01-18T23:30:54.880Z,18.50
2023-01-18T23:33:22.222Z,16.10
2023-01-18T23:35:48.892Z,16.25
2023-01-18T23:38:15.564Z,16.20
2023-01-18T23:41:02.111Z,16.40
2023-01-18T23:43:48.827Z,16.13
2023-01-18T23:46:35.626Z,14.57
2023-01-18T23:49:22.397Z,17.75
2023-01-18T23:52:08.970Z,17.77
2023-01-18T23:54:36.901Z,15.65
2023-01-18T23:57:03.665Z,19.33
2023-01-18T23:59:30.436Z,16.98
